EGTE/EXT METAR and TAF weather

Enter ICAO airport designator
Station Type Date Time Source
EGTE METAR 2020/07/05 08:20 UTC NOAA

EGTE 050820Z 26013G25KT 9999 SCT030 16/10 Q1013


Station Type Date Time Source
EGTE Decoded METAR 2020/07/05 08:20 UTC NOAA

Exeter Airport, United Kingdom (EGTE) 50-44N 003-25W
Jul 05, 2020 - 04:20 AM EDT / 2020.07.05 0820 UTC
Wind: from the W (260 degrees) at 15 MPH (13 KT) gusting to 29 MPH (25 KT):0
Visibility: greater than 7 mile(s):0
Sky conditions: partly cloudy
Temperature: 60 F (16 C)
Dew Point: 50 F (10 C)
Relative Humidity: 67%
Pressure (altimeter): 29.91 in. Hg (1013 hPa)
ob: EGTE 050820Z 26013G25KT 9999 SCT030 16/10 Q1013
cycle: 8

Station Type Date Time Source
EGTE TAF 2012/04/19 12:15 UTC NOAA

TAF TAF EGTE 191401Z 1912/1924 31016KT 9999 SCT030 SCT035 PROB40
TEMPO 1915/1918 7000 SHRA BKN014

Example: see airport list